Tempos de volta de FÓRMULA 4 COPA KGV DE KART - FÓRMULA 4 / PROVA 1 - 09:55
COPA KGV DE KART 3° ETAPA - EVENTO VI a funcionar CIRCUITO COPA KGV DE KART
Tempos de volta de FÓRMULA 4 - COPA KGV DE KART - FÓRMULA 4 / PROVA 1 - 09:55


Hora do dia Volta Volta do Líder Volta Tm Velocidade
073 - GABRIEL CHINELLATO / A. CATTUCCI - F4 (G)
9:51:23.983 1 1 42.450 64,028
9:52:04.501 2 2 40.518 67,081
9:52:44.252 3 3 39.751 68,376
9:53:24.027 4 4 39.775 68,334
9:54:03.368 5 5 39.341 69,088
9:54:42.778 6 6 39.410 68,967
9:55:22.259 7 7 39.481 68,843
9:56:01.836 8 8 39.577 68,676
9:56:41.116 9 9 39.280 69,196
9:57:20.419 10 10 39.303 69,155
9:57:59.725 11 11 39.306 69,150
9:58:39.137 12 12 39.412 68,964
9:59:18.796 13 13 39.659 68,534
9:59:58.362 14 14 39.566 68,695
10:00:37.749 15 15 39.387 69,008
10:01:17.130 16 16 39.381 69,018
10:01:56.633 17 17 39.503 68,805
10:02:36.103 18 18 39.470 68,862
10:03:15.523 19 19 39.420 68,950
10:03:54.965 20 20 39.442 68,911
10:04:34.264 21 21 39.299 69,162
10:05:13.926 22 22 39.662 68,529
10:05:53.434 23 23 39.508 68,796
10:06:33.350 24 24 39.916 68,093
10:07:13.404 25 25 40.054 67,858
10:07:53.725 26 26 40.321 67,409
097 - THYAGO MORAES / MARCO REZENDE - F4 (L)
9:51:23.944 1 1 42.345 64,187
9:52:04.232 2 2 40.288 67,464
9:52:43.932 3 3 39.700 68,463
9:53:23.555 4 4 39.623 68,597
9:54:03.089 5 5 39.534 68,751
9:54:42.530 6 6 39.441 68,913
9:55:21.940 7 7 39.410 68,967
9:56:01.423 8 8 39.483 68,840
9:56:40.818 9 9 39.395 68,994
9:57:20.358 10 10 39.540 68,741
9:58:00.146 11 11 39.788 68,312
9:58:39.588 12 12 39.442 68,911
9:59:19.132 13 13 39.544 68,734
9:59:58.660 14 14 39.528 68,761
10:00:38.172 15 15 39.512 68,789
10:01:17.636 16 16 39.464 68,873
10:01:57.137 17 17 39.501 68,808
10:02:36.770 18 18 39.633 68,579
10:03:16.372 19 19 39.602 68,633
10:03:55.745 20 20 39.373 69,032
10:04:35.272 21 21 39.527 68,763
10:05:14.810 22 22 39.538 68,744
10:05:54.463 23 23 39.653 68,545
10:06:33.975 24 24 39.512 68,789
10:07:13.668 25 25 39.693 68,476
10:07:54.280 26 26 40.612 66,926
177 - RENZO ZAMBOLINI - F4 (G)
9:51:22.479 1 1 41.283 65,838
9:52:02.573 2 2 40.094 67,791
9:52:42.249 3 3 39.676 68,505
9:53:21.762 4 4 39.513 68,787
9:54:01.430 5 5 39.668 68,519
9:54:40.930 6 6 39.500 68,810
9:55:20.418 7 7 39.488 68,831
9:55:59.759 8 8 39.341 69,088
9:56:39.093 9 9 39.334 69,101
9:57:18.656 10 10 39.563 68,701
9:57:58.164 11 11 39.508 68,796
9:58:37.769 12 12 39.605 68,628
9:59:17.280 13 13 39.511 68,791
9:59:56.830 14 14 39.550 68,723
10:00:36.494 15 15 39.664 68,526
10:01:16.044 16 16 39.550 68,723
10:01:55.615 17 17 39.571 68,687
10:02:35.087 18 18 39.472 68,859
10:03:14.802 19 19 39.715 68,438
10:03:54.480 20 20 39.678 68,501
10:04:34.082 21 21 39.602 68,633
10:05:13.687 22 22 39.605 68,628
10:05:53.307 23 23 39.620 68,602
10:06:33.448 24 24 40.141 67,711
10:07:13.247 25 25 39.799 68,293
10:07:54.332 26 26 41.085 66,156
088 - AKIRA EGUTI - F4 (S)
9:51:24.534 1 1 42.875 63,394
9:52:04.934 2 2 40.400 67,277
9:52:44.897 3 3 39.963 68,013
9:53:24.300 4 4 39.403 68,980
9:54:03.881 5 5 39.581 68,669
9:54:43.482 6 6 39.601 68,635
9:55:22.906 7 7 39.424 68,943
9:56:02.341 8 8 39.435 68,924
9:56:42.336 9 9 39.995 67,958
9:57:21.646 10 10 39.310 69,143
9:58:00.905 11 11 39.259 69,233
9:58:40.328 12 12 39.423 68,945
9:59:20.217 13 13 39.889 68,139
9:59:59.949 14 14 39.732 68,408
10:00:39.359 15 15 39.410 68,967
10:01:18.923 16 16 39.564 68,699
10:01:58.394 17 17 39.471 68,861
10:02:37.837 18 18 39.443 68,910
10:03:17.360 19 19 39.523 68,770
10:03:56.955 20 20 39.595 68,645
10:04:36.575 21 21 39.620 68,602
10:05:16.172 22 22 39.597 68,642
10:05:55.725 23 23 39.553 68,718
10:06:35.594 24 24 39.869 68,173
10:07:15.222 25 25 39.628 68,588
10:07:55.255 26 26 40.033 67,894
070 - ELETRIC PRODUTOS AUTOMOTIVOS - F4 (S)
9:51:23.248 1 1 41.860 64,931
9:52:03.324 2 2 40.076 67,821
9:52:43.175 3 3 39.851 68,204
9:53:22.858 4 4 39.683 68,493
9:54:02.619 5 5 39.761 68,358
9:54:42.333 6 6 39.714 68,439
9:55:22.605 7 7 40.272 67,491
9:56:02.104 8 8 39.499 68,812
9:56:41.746 9 9 39.642 68,564
9:57:21.192 10 10 39.446 68,904
9:58:00.641 11 11 39.449 68,899
9:58:40.260 12 12 39.619 68,603
9:59:20.157 13 13 39.897 68,125
10:00:00.334 14 14 40.177 67,651
10:00:39.974 15 15 39.640 68,567
10:01:19.592 16 16 39.618 68,605
10:01:59.066 17 17 39.474 68,855
10:02:38.579 18 18 39.513 68,787
10:03:18.456 19 19 39.877 68,160
10:03:58.103 20 20 39.647 68,555
10:04:37.840 21 21 39.737 68,400
10:05:17.646 22 22 39.806 68,281
10:05:57.293 23 23 39.647 68,555
10:06:36.905 24 24 39.612 68,616
10:07:16.598 25 25 39.693 68,476
10:07:56.296 26 26 39.698 68,467
076 - HENRIQUE PETTINARI - F4 (L)
9:51:24.999 1 1 43.303 62,767
9:52:05.334 2 2 40.335 67,386
9:52:46.065 3 3 40.731 66,731
9:53:25.902 4 4 39.837 68,228
9:54:05.576 5 5 39.674 68,508
9:54:45.059 6 6 39.483 68,840
9:55:24.557 7 7 39.498 68,814
9:56:04.189 8 8 39.632 68,581
9:56:43.738 9 9 39.549 68,725
9:57:23.182 10 10 39.444 68,908
9:58:02.810 11 11 39.628 68,588
9:58:42.503 12 12 39.693 68,476
9:59:22.313 13 13 39.810 68,274
10:00:01.941 14 14 39.628 68,588
10:00:41.484 15 15 39.543 68,735
10:01:20.944 16 16 39.460 68,880
10:02:00.557 17 17 39.613 68,614
10:02:40.105 18 18 39.548 68,727
10:03:19.668 19 19 39.563 68,701
10:03:59.236 20 20 39.568 68,692
10:04:38.772 21 21 39.536 68,747
10:05:18.412 22 22 39.640 68,567
10:05:57.913 23 23 39.501 68,808
10:06:37.409 24 24 39.496 68,817
10:07:16.961 25 25 39.552 68,720
10:07:56.478 26 26 39.517 68,781
153 - MARCOS BARONE - F4 (S)
9:51:25.532 1 1 43.723 62,164
9:52:05.893 2 2 40.361 67,342
9:52:46.247 3 3 40.354 67,354
9:53:26.231 4 4 39.984 67,977
9:54:05.754 5 5 39.523 68,770
9:54:45.367 6 6 39.613 68,614
9:55:24.966 7 7 39.599 68,638
9:56:04.537 8 8 39.571 68,687
9:56:44.046 9 9 39.509 68,794
9:57:23.609 10 10 39.563 68,701
9:58:03.138 11 11 39.529 68,760
9:58:42.985 12 12 39.847 68,211
9:59:22.995 13 13 40.010 67,933
10:00:02.786 14 14 39.791 68,307
10:00:42.457 15 15 39.671 68,514
10:01:22.157 16 16 39.700 68,463
10:02:01.787 17 17 39.630 68,584
10:02:41.608 18 18 39.821 68,255
10:03:21.321 19 19 39.713 68,441
10:04:00.952 20 20 39.631 68,583
10:04:40.753 21 21 39.801 68,290
10:05:20.382 22 22 39.629 68,586
10:06:00.227 23 23 39.845 68,214
10:06:40.079 24 24 39.852 68,202
10:07:19.753 25 25 39.674 68,508
10:07:59.599 26 26 39.846 68,213
144 - DGEISON DE LUCCA - F4 (S)
9:51:25.935 1 1 43.927 61,875
9:52:06.197 2 2 40.262 67,508
9:52:46.676 3 3 40.479 67,146
9:53:26.701 4 4 40.025 67,908
9:54:06.450 5 5 39.749 68,379
9:54:45.982 6 6 39.532 68,754
9:55:25.511 7 7 39.529 68,760
9:56:05.016 8 8 39.505 68,801
9:56:44.537 9 9 39.521 68,774
9:57:24.159 10 10 39.622 68,598
9:58:03.626 11 11 39.467 68,868
9:58:43.395 12 12 39.769 68,345
9:59:23.302 13 13 39.907 68,108
10:00:03.127 14 14 39.825 68,249
10:00:43.409 15 15 40.282 67,474
10:01:22.833 16 16 39.424 68,943
10:02:02.476 17 17 39.643 68,562
10:02:42.041 18 18 39.565 68,697
10:03:21.610 19 19 39.569 68,690
10:04:01.258 20 20 39.648 68,553
10:04:40.889 21 21 39.631 68,583
10:05:20.933 22 22 40.044 67,875
10:06:00.697 23 23 39.764 68,353
10:06:40.415 24 24 39.718 68,432
10:07:20.075 25 25 39.660 68,533
10:07:59.828 26 26 39.753 68,372
126 - ERICK DANTAS - F4 (G)
9:51:25.147 1 1 43.272 62,812
9:52:05.570 2 2 40.423 67,239
9:52:45.544 3 3 39.974 67,994
9:53:25.301 4 4 39.757 68,365
9:54:04.992 5 5 39.691 68,479
9:54:44.747 6 6 39.755 68,369
9:55:24.435 7 7 39.688 68,484
9:56:03.962 8 8 39.527 68,763
9:56:43.409 9 9 39.447 68,903
9:57:22.908 10 10 39.499 68,812
9:58:02.593 11 11 39.685 68,489
9:58:42.474 12 12 39.881 68,153
9:59:22.548 13 13 40.074 67,825
10:00:02.301 14 14 39.753 68,372
10:00:41.936 15 15 39.635 68,576
10:01:21.528 16 16 39.592 68,650
10:02:01.355 17 17 39.827 68,245
10:02:41.145 18 18 39.790 68,309
10:03:20.862 19 19 39.717 68,434
10:04:00.644 20 20 39.782 68,322
10:04:40.564 21 21 39.920 68,086
10:05:21.249 22 22 40.685 66,806
10:06:00.951 23 23 39.702 68,460
10:06:40.616 24 24 39.665 68,524
10:07:20.509 25 25 39.893 68,132
10:08:00.509 26 26 40.000 67,950
333 - MIMI SCHIVEL CORINTHIANS - F4 (G)
9:51:26.285 1 1 44.184 61,515
9:52:07.013 2 2 40.728 66,735
9:52:46.985 3 3 39.972 67,998
9:53:26.889 4 4 39.904 68,113
9:54:06.595 5 5 39.706 68,453
9:54:46.113 6 6 39.518 68,779
9:55:25.760 7 7 39.647 68,555
9:56:05.302 8 8 39.542 68,737
9:56:44.726 9 9 39.424 68,943
9:57:24.363 10 10 39.637 68,572
9:58:03.964 11 11 39.601 68,635
9:58:43.551 12 12 39.587 68,659
9:59:23.402 13 13 39.851 68,204
10:00:03.294 14 14 39.892 68,134
10:00:42.959 15 15 39.665 68,524
10:01:22.680 16 16 39.721 68,427
10:02:02.747 17 17 40.067 67,836
10:02:42.297 18 18 39.550 68,723
10:03:22.004 19 19 39.707 68,451
10:04:01.785 20 20 39.781 68,324
10:04:41.418 21 21 39.633 68,579
10:05:21.515 22 22 40.097 67,786
10:06:01.349 23 23 39.834 68,233
10:06:41.202 24 24 39.853 68,201
10:07:20.876 25 25 39.674 68,508
10:08:00.740 26 26 39.864 68,182
045 - GABRIEL ROSA - F4 (S)
9:51:26.881 1 1 44.976 60,432
9:52:09.078 2 2 42.197 64,412
9:52:49.270 3 3 40.192 67,625
9:53:29.028 4 4 39.758 68,364
9:54:08.806 5 5 39.778 68,329
9:54:48.767 6 6 39.961 68,016
9:55:28.679 7 7 39.912 68,100
9:56:08.405 8 8 39.726 68,419
9:56:48.100 9 9 39.695 68,472
9:57:28.064 10 10 39.964 68,011
9:58:07.910 11 11 39.846 68,213
9:58:47.738 12 12 39.828 68,243
9:59:27.489 13 13 39.751 68,376
10:00:07.228 14 14 39.739 68,396
10:00:46.967 15 15 39.739 68,396
10:01:26.702 16 16 39.735 68,403
10:02:06.362 17 17 39.660 68,533
10:02:46.308 18 18 39.946 68,042
10:03:26.026 19 19 39.718 68,432
10:04:05.953 20 20 39.927 68,074
10:04:45.765 21 21 39.812 68,271
10:05:26.100 22 22 40.335 67,386
10:06:05.961 23 23 39.861 68,187
10:06:46.157 24 24 40.196 67,619
10:07:26.036 25 25 39.879 68,156
10:08:05.982 26 26 39.946 68,042
147 - THIAGO LOPES - F4 (S)
9:51:26.023 1 1 44.012 61,756
9:52:06.501 2 2 40.478 67,148
9:52:46.894 3 3 40.393 67,289
9:53:27.249 4 4 40.355 67,352
9:54:06.971 5 5 39.722 68,426
9:54:46.771 6 6 39.800 68,291
9:55:26.379 7 7 39.608 68,623
9:56:05.873 8 8 39.494 68,821
9:56:45.612 9 9 39.739 68,396
9:57:26.153 10 10 40.541 67,043
9:58:06.091 11 11 39.938 68,055
9:58:45.872 12 12 39.781 68,324
9:59:25.769 13 13 39.897 68,125
10:00:05.782 14 14 40.013 67,928
10:00:45.789 15 15 40.007 67,938
10:01:25.818 16 16 40.029 67,901
10:02:05.923 17 17 40.105 67,772
10:02:46.112 18 18 40.189 67,630
10:03:26.202 19 19 40.090 67,797
10:04:06.206 20 20 40.004 67,943
10:04:45.936 21 21 39.730 68,412
10:05:26.333 22 22 40.397 67,282
10:06:06.044 23 23 39.711 68,445
10:06:46.287 24 24 40.243 67,540
10:07:26.524 25 25 40.237 67,550
10:08:06.465 26 26 39.941 68,050
044 - CHRISTIAN MARKAKIS - F4 (L)
9:51:26.712 1 1 44.566 60,988
9:52:08.041 2 2 41.329 65,765
9:52:48.266 3 3 40.225 67,570
9:53:28.447 4 4 40.181 67,644
9:54:08.544 5 5 40.097 67,786
9:54:48.286 6 6 39.742 68,391
9:55:28.323 7 7 40.037 67,887
9:56:08.187 8 8 39.864 68,182
9:56:48.068 9 9 39.881 68,153
9:57:28.603 10 10 40.535 67,053
9:58:08.412 11 11 39.809 68,276
9:58:48.365 12 12 39.953 68,030
9:59:28.031 13 13 39.666 68,522
10:00:07.809 14 14 39.778 68,329
10:00:47.624 15 15 39.815 68,266
10:01:27.294 16 16 39.670 68,515
10:02:06.998 17 17 39.704 68,457
10:02:46.676 18 18 39.678 68,501
10:03:26.541 19 19 39.865 68,180
10:04:06.959 20 20 40.418 67,247
10:04:46.729 21 21 39.770 68,343
10:05:26.957 22 22 40.228 67,565
10:06:06.820 23 23 39.863 68,184
10:06:46.607 24 24 39.787 68,314
10:07:26.990 25 25 40.383 67,306
10:08:07.378 26 26 40.388 67,297
008 - CARLOS COMPARATTO - F4 (S)
9:51:27.364 1 1 45.145 60,206
9:52:08.328 2 2 40.964 66,351
9:52:48.529 3 3 40.201 67,610
9:53:28.618 4 4 40.089 67,799
9:54:08.730 5 5 40.112 67,760
9:54:48.685 6 6 39.955 68,027
9:55:28.569 7 7 39.884 68,148
9:56:08.303 8 8 39.734 68,405
9:56:48.482 9 9 40.179 67,647
9:57:28.819 10 10 40.337 67,382
9:58:08.764 11 11 39.945 68,044
9:58:48.460 12 12 39.696 68,470
9:59:28.308 13 13 39.848 68,209
10:00:08.009 14 14 39.701 68,462
10:00:47.897 15 15 39.888 68,141
10:01:27.703 16 16 39.806 68,281
10:02:07.366 17 17 39.663 68,527
10:02:47.011 18 18 39.645 68,558
10:03:26.968 19 19 39.957 68,023
10:04:06.704 20 20 39.736 68,401
10:04:46.487 21 21 39.783 68,321
10:05:26.813 22 22 40.326 67,401
10:06:06.448 23 23 39.635 68,576
10:06:46.467 24 24 40.019 67,918
10:07:26.840 25 25 40.373 67,322
10:08:07.446 26 26 40.606 66,936
031 - AUGUSTO CHAGAS - F4 (L)
9:51:28.194 1 1 45.702 59,472
9:52:09.555 2 2 41.361 65,714
9:52:50.063 3 3 40.508 67,098
9:53:30.316 4 4 40.253 67,523
9:54:10.451 5 5 40.135 67,721
9:54:50.514 6 6 40.063 67,843
9:55:30.297 7 7 39.783 68,321
9:56:10.329 8 8 40.032 67,896
9:56:50.331 9 9 40.002 67,947
9:57:30.156 10 10 39.825 68,249
9:58:09.953 11 11 39.797 68,297
9:58:49.761 12 12 39.808 68,278
9:59:29.729 13 13 39.968 68,004
10:00:09.639 14 14 39.910 68,103
10:00:49.636 15 15 39.997 67,955
10:01:29.852 16 16 40.216 67,585
10:02:09.803 17 17 39.951 68,033
10:02:49.793 18 18 39.990 67,967
10:03:30.005 19 19 40.212 67,592
10:04:10.227 20 20 40.222 67,575
10:04:50.402 21 21 40.175 67,654
10:05:30.676 22 22 40.274 67,488
10:06:10.906 23 23 40.230 67,562
10:06:51.208 24 24 40.302 67,441
10:07:31.395 25 25 40.187 67,634
10:08:11.570 26 26 40.175 67,654
113 - CARLOS TOLEDO PIZA - F4 (L)
9:51:27.664 1 1 45.334 59,955
9:52:08.764 2 2 41.100 66,131
9:52:49.019 3 3 40.255 67,520
9:53:29.863 4 4 40.844 66,546
9:54:09.926 5 5 40.063 67,843
9:54:49.963 6 6 40.037 67,887
9:55:30.027 7 7 40.064 67,841
9:56:10.512 8 8 40.485 67,136
9:56:50.528 9 9 40.016 67,923
9:57:30.618 10 10 40.090 67,797
9:58:10.845 11 11 40.227 67,567
9:58:50.888 12 12 40.043 67,877
9:59:31.035 13 13 40.147 67,701
10:00:11.364 14 14 40.329 67,396
10:00:51.544 15 15 40.180 67,646
10:01:31.722 16 16 40.178 67,649
10:02:12.040 17 17 40.318 67,414
10:02:52.287 18 18 40.247 67,533
10:03:33.049 19 19 40.762 66,680
10:04:13.461 20 20 40.412 67,257
10:04:53.871 21 21 40.410 67,261
10:05:34.295 22 22 40.424 67,237
10:06:14.640 23 23 40.345 67,369
10:06:54.876 24 24 40.236 67,551
10:07:35.227 25 25 40.351 67,359
10:08:15.752 26 26 40.525 67,070
016 - JL OLIVEIRA - F4 (L)
9:51:28.950 1 1 45.981 59,111
9:52:10.110 2 2 41.160 66,035
9:52:50.981 3 3 40.871 66,502
9:53:31.707 4 4 40.726 66,739
9:54:12.088 5 5 40.381 67,309
9:54:52.718 6 6 40.630 66,896
9:55:33.362 7 7 40.644 66,873
9:56:13.410 8 8 40.048 67,869
9:56:53.492 9 9 40.082 67,811
9:57:33.679 10 10 40.187 67,634
9:58:13.848 11 11 40.169 67,664
9:58:54.061 12 12 40.213 67,590
9:59:34.106 13 13 40.045 67,874
10:00:14.304 14 14 40.198 67,615
10:00:54.508 15 15 40.204 67,605
10:01:34.890 16 16 40.382 67,307
10:02:15.051 17 17 40.161 67,678
10:02:55.285 18 18 40.234 67,555
10:03:35.526 19 19 40.241 67,543
10:04:15.708 20 20 40.182 67,642
10:04:55.722 21 21 40.014 67,926
10:05:36.308 22 22 40.586 66,969
10:06:16.670 23 23 40.362 67,341
10:06:56.999 24 24 40.329 67,396
10:07:37.498 25 25 40.499 67,113
10:08:17.970 26 26 40.472 67,158
797 - EDUARDO PEREZ / THIAGO MORAES - F4 (S)
9:51:28.476 1 1 45.659 59,528
9:52:09.964 2 2 41.488 65,513
9:52:50.738 3 3 40.774 66,660
9:53:31.296 4 4 40.558 67,015
9:54:11.843 5 5 40.547 67,033
9:54:52.541 6 6 40.698 66,785
9:55:33.843 7 7 41.302 65,808
9:56:14.233 8 8 40.390 67,294
9:56:54.845 9 9 40.612 66,926
9:57:35.559 10 10 40.714 66,758
9:58:16.499 11 11 40.940 66,390
9:58:57.364 12 12 40.865 66,512
9:59:38.536 13 13 41.172 66,016
10:00:19.224 14 14 40.688 66,801
10:01:00.349 15 15 41.125 66,091
10:01:41.555 16 16 41.206 65,961
10:02:22.866 17 17 41.311 65,794
10:03:04.027 18 18 41.161 66,033
10:03:45.445 19 19 41.418 65,624
10:04:26.769 20 20 41.324 65,773
10:05:08.035 21 21 41.266 65,865
10:05:49.395 22 22 41.360 65,716
10:06:30.913 23 23 41.518 65,466
10:07:12.459 24 24 41.546 65,421
10:07:55.441 25 26 42.982 63,236
001 - R. FRANÇA / D. GODINHO - F4 (S)
9:52:04.528 1 2 1:23.233 32,655
Gerada em 04/09/2021 13:24